sensor_id;sensor_type;location;lat;lon;timestamp;P1;durP1;ratioP1;P2;durP2;ratioP2
74459;SDS011;62902;48.854;9.292;2023-07-09T00:03:45;333.87;;;132.77;;
74459;SDS011;62902;48.854;9.292;2023-07-09T00:20:57;411.05;;;252.70;;
74459;SDS011;62902;48.854;9.292;2023-07-09T00:28:20;306.67;;;73.70;;
74459;SDS011;62902;48.854;9.292;2023-07-09T00:30:47;295.20;;;66.00;;
74459;SDS011;62902;48.854;9.292;2023-07-09T00:33:15;430.53;;;278.00;;
74459;SDS011;62902;48.854;9.292;2023-07-09T00:35:42;428.17;;;284.43;;
74459;SDS011;62902;48.854;9.292;2023-07-09T00:38:17;408.77;;;286.50;;
74459;SDS011;62902;48.854;9.292;2023-07-09T00:40:58;407.45;;;282.35;;
74459;SDS011;62902;48.854;9.292;2023-07-09T00:43:32;443.50;;;274.30;;
74459;SDS011;62902;48.854;9.292;2023-07-09T00:46:10;436.00;;;256.40;;
74459;SDS011;62902;48.854;9.292;2023-07-09T00:48:40;570.07;;;167.00;;
74459;SDS011;62902;48.854;9.292;2023-07-09T00:51:12;1990.75;;;680.00;;
74459;SDS011;62902;48.854;9.292;2023-07-09T00:53:41;1942.30;;;475.60;;
74459;SDS011;62902;48.854;9.292;2023-07-09T00:56:13;611.10;;;96.90;;
74459;SDS011;62902;48.854;9.292;2023-07-09T00:58:41;609.40;;;97.15;;
74459;SDS011;62902;48.854;9.292;2023-07-09T01:01:10;611.33;;;94.93;;
74459;SDS011;62902;48.854;9.292;2023-07-09T01:03:53;603.45;;;100.40;;
74459;SDS011;62902;48.854;9.292;2023-07-09T01:06:32;619.10;;;110.00;;
74459;SDS011;62902;48.854;9.292;2023-07-09T01:09:02;601.38;;;108.45;;
74459;SDS011;62902;48.854;9.292;2023-07-09T01:11:31;583.13;;;109.67;;
74459;SDS011;62902;48.854;9.292;2023-07-09T01:14:02;581.97;;;113.82;;
74459;SDS011;62902;48.854;9.292;2023-07-09T01:16:31;583.10;;;108.22;;
74459;SDS011;62902;48.854;9.292;2023-07-09T01:19:00;584.67;;;99.27;;
74459;SDS011;62902;48.854;9.292;2023-07-09T01:21:27;584.60;;;96.25;;
74459;SDS011;62902;48.854;9.292;2023-07-09T01:23:54;585.10;;;87.55;;
74459;SDS011;62902;48.854;9.292;2023-07-09T01:26:22;582.63;;;106.70;;
74459;SDS011;62902;48.854;9.292;2023-07-09T01:28:51;581.67;;;111.70;;
74459;SDS011;62902;48.854;9.292;2023-07-09T01:31:19;581.40;;;99.05;;
74459;SDS011;62902;48.854;9.292;2023-07-09T01:33:47;582.55;;;90.80;;
74459;SDS011;62902;48.854;9.292;2023-07-09T01:36:17;583.55;;;84.25;;
74459;SDS011;62902;48.854;9.292;2023-07-09T01:38:50;587.50;;;78.60;;
74459;SDS011;62902;48.854;9.292;2023-07-09T01:41:17;600.38;;;91.25;;
74459;SDS011;62902;48.854;9.292;2023-07-09T01:43:45;582.15;;;104.55;;
74459;SDS011;62902;48.854;9.292;2023-07-09T01:46:14;583.00;;;82.90;;
74459;SDS011;62902;48.854;9.292;2023-07-09T01:48:41;583.50;;;81.40;;
74459;SDS011;62902;48.854;9.292;2023-07-09T01:51:11;583.20;;;79.90;;
74459;SDS011;62902;48.854;9.292;2023-07-09T01:53:38;581.90;;;81.90;;
74459;SDS011;62902;48.854;9.292;2023-07-09T01:56:07;575.97;;;111.95;;
74459;SDS011;62902;48.854;9.292;2023-07-09T01:58:34;574.85;;;116.25;;
74459;SDS011;62902;48.854;9.292;2023-07-09T02:01:01;594.80;;;121.95;;
74459;SDS011;62902;48.854;9.292;2023-07-09T02:03:28;574.10;;;118.38;;
74459;SDS011;62902;48.854;9.292;2023-07-09T02:05:55;581.83;;;92.75;;
74459;SDS011;62902;48.854;9.292;2023-07-09T02:08:24;580.95;;;87.95;;
74459;SDS011;62902;48.854;9.292;2023-07-09T02:10:51;580.60;;;85.60;;
74459;SDS011;62902;48.854;9.292;2023-07-09T02:13:17;581.40;;;83.80;;
74459;SDS011;62902;48.854;9.292;2023-07-09T02:15:44;576.30;;;112.07;;
74459;SDS011;62902;48.854;9.292;2023-07-09T02:18:11;574.58;;;123.75;;
74459;SDS011;62902;48.854;9.292;2023-07-09T02:20:41;592.50;;;117.90;;
74459;SDS011;62902;48.854;9.292;2023-07-09T02:23:08;595.45;;;105.40;;
74459;SDS011;62902;48.854;9.292;2023-07-09T02:25:34;580.78;;;103.47;;
74459;SDS011;62902;48.854;9.292;2023-07-09T02:28:01;599.60;;;74.80;;
74459;SDS011;62902;48.854;9.292;2023-07-09T02:30:27;585.25;;;76.55;;
74459;SDS011;62902;48.854;9.292;2023-07-09T02:32:54;582.40;;;76.05;;
74459;SDS011;62902;48.854;9.292;2023-07-09T02:35:22;585.00;;;75.40;;
74459;SDS011;62902;48.854;9.292;2023-07-09T02:37:49;582.35;;;78.35;;
74459;SDS011;62902;48.854;9.292;2023-07-09T02:40:16;582.07;;;81.40;;
74459;SDS011;62902;48.854;9.292;2023-07-09T02:42:43;584.20;;;69.77;;
74459;SDS011;62902;48.854;9.292;2023-07-09T02:45:09;582.60;;;71.85;;
74459;SDS011;62902;48.854;9.292;2023-07-09T02:47:37;592.50;;;120.13;;
74459;SDS011;62902;48.854;9.292;2023-07-09T02:50:05;598.90;;;78.20;;
74459;SDS011;62902;48.854;9.292;2023-07-09T02:52:32;597.60;;;90.60;;
74459;SDS011;62902;48.854;9.292;2023-07-09T02:54:59;581.17;;;91.88;;
74459;SDS011;62902;48.854;9.292;2023-07-09T02:57:25;581.00;;;85.45;;
74459;SDS011;62902;48.854;9.292;2023-07-09T02:59:52;583.63;;;72.33;;
74459;SDS011;62902;48.854;9.292;2023-07-09T03:02:19;599.08;;;75.07;;
74459;SDS011;62902;48.854;9.292;2023-07-09T03:04:46;582.45;;;72.70;;
74459;SDS011;62902;48.854;9.292;2023-07-09T03:07:12;597.75;;;80.65;;
74459;SDS011;62902;48.854;9.292;2023-07-09T03:09:39;581.23;;;72.73;;
74459;SDS011;62902;48.854;9.292;2023-07-09T03:12:06;138.15;;;16.95;;
74459;SDS011;62902;48.854;9.292;2023-07-09T03:14:33;621.60;;;85.57;;
74459;SDS011;62902;48.854;9.292;2023-07-09T03:16:59;606.20;;;83.50;;
74459;SDS011;62902;48.854;9.292;2023-07-09T03:19:27;605.50;;;82.80;;
74459;SDS011;62902;48.854;9.292;2023-07-09T03:21:54;608.35;;;82.50;;
74459;SDS011;62902;48.854;9.292;2023-07-09T03:24:21;605.33;;;87.97;;
74459;SDS011;62902;48.854;9.292;2023-07-09T03:26:48;603.30;;;87.55;;
74459;SDS011;62902;48.854;9.292;2023-07-09T03:29:14;606.27;;;85.27;;
74459;SDS011;62902;48.854;9.292;2023-07-09T03:31:41;594.95;;;102.10;;
74459;SDS011;62902;48.854;9.292;2023-07-09T03:34:08;590.27;;;121.63;;
74459;SDS011;62902;48.854;9.292;2023-07-09T03:36:34;599.75;;;96.72;;
74459;SDS011;62902;48.854;9.292;2023-07-09T03:39:04;494.00;;;193.30;;
74459;SDS011;62902;48.854;9.292;2023-07-09T03:41:31;537.35;;;157.30;;
74459;SDS011;62902;48.854;9.292;2023-07-09T03:43:58;535.95;;;159.25;;
74459;SDS011;62902;48.854;9.292;2023-07-09T03:46:24;565.55;;;151.35;;
74459;SDS011;62902;48.854;9.292;2023-07-09T03:48:51;572.05;;;148.00;;
74459;SDS011;62902;48.854;9.292;2023-07-09T03:51:18;572.80;;;150.90;;
74459;SDS011;62902;48.854;9.292;2023-07-09T03:53:45;563.05;;;149.05;;
74459;SDS011;62902;48.854;9.292;2023-07-09T03:56:11;573.85;;;146.90;;
74459;SDS011;62902;48.854;9.292;2023-07-09T03:58:38;563.95;;;152.50;;
74459;SDS011;62902;48.854;9.292;2023-07-09T04:01:05;548.25;;;159.50;;
74459;SDS011;62902;48.854;9.292;2023-07-09T04:03:31;559.70;;;166.00;;
74459;SDS011;62902;48.854;9.292;2023-07-09T04:05:58;527.05;;;171.15;;
74459;SDS011;62902;48.854;9.292;2023-07-09T04:08:25;531.53;;;168.50;;
74459;SDS011;62902;48.854;9.292;2023-07-09T04:10:58;522.40;;;178.83;;
74459;SDS011;62902;48.854;9.292;2023-07-09T04:13:25;562.25;;;165.60;;
74459;SDS011;62902;48.854;9.292;2023-07-09T04:15:54;540.40;;;158.50;;
74459;SDS011;62902;48.854;9.292;2023-07-09T04:18:21;531.77;;;155.63;;
74459;SDS011;62902;48.854;9.292;2023-07-09T04:20:48;541.20;;;158.20;;
74459;SDS011;62902;48.854;9.292;2023-07-09T04:23:16;529.25;;;157.75;;
74459;SDS011;62902;48.854;9.292;2023-07-09T04:25:43;492.40;;;190.30;;
74459;SDS011;62902;48.854;9.292;2023-07-09T04:28:10;516.67;;;173.02;;
74459;SDS011;62902;48.854;9.292;2023-07-09T04:30:36;520.93;;;159.63;;
74459;SDS011;62902;48.854;9.292;2023-07-09T04:33:03;484.87;;;203.37;;
74459;SDS011;62902;48.854;9.292;2023-07-09T04:35:30;468.90;;;180.50;;
74459;SDS011;62902;48.854;9.292;2023-07-09T04:37:56;553.20;;;160.30;;
74459;SDS011;62902;48.854;9.292;2023-07-09T04:40:24;582.30;;;143.03;;
74459;SDS011;62902;48.854;9.292;2023-07-09T04:42:50;569.90;;;146.57;;
74459;SDS011;62902;48.854;9.292;2023-07-09T04:45:17;538.83;;;146.83;;
74459;SDS011;62902;48.854;9.292;2023-07-09T04:47:44;543.35;;;155.75;;
74459;SDS011;62902;48.854;9.292;2023-07-09T04:50:10;525.35;;;149.15;;
74459;SDS011;62902;48.854;9.292;2023-07-09T04:52:37;530.10;;;151.85;;
74459;SDS011;62902;48.854;9.292;2023-07-09T04:55:04;552.05;;;156.38;;
74459;SDS011;62902;48.854;9.292;2023-07-09T04:57:31;541.25;;;147.90;;
74459;SDS011;62902;48.854;9.292;2023-07-09T04:59:58;561.15;;;152.25;;
74459;SDS011;62902;48.854;9.292;2023-07-09T05:02:24;563.50;;;150.55;;
74459;SDS011;62902;48.854;9.292;2023-07-09T05:04:51;555.00;;;147.23;;
74459;SDS011;62902;48.854;9.292;2023-07-09T05:07:18;516.47;;;156.10;;
74459;SDS011;62902;48.854;9.292;2023-07-09T05:09:45;541.65;;;145.20;;
74459;SDS011;62902;48.854;9.292;2023-07-09T05:12:11;540.00;;;148.82;;
74459;SDS011;62902;48.854;9.292;2023-07-09T05:14:38;498.75;;;184.65;;
74459;SDS011;62902;48.854;9.292;2023-07-09T05:17:05;547.10;;;156.60;;
74459;SDS011;62902;48.854;9.292;2023-07-09T05:19:32;507.70;;;180.60;;
74459;SDS011;62902;48.854;9.292;2023-07-09T05:21:59;561.40;;;163.15;;
74459;SDS011;62902;48.854;9.292;2023-07-09T05:24:25;608.20;;;130.95;;
74459;SDS011;62902;48.854;9.292;2023-07-09T05:26:54;565.47;;;137.17;;
74459;SDS011;62902;48.854;9.292;2023-07-09T05:29:21;576.90;;;162.60;;
74459;SDS011;62902;48.854;9.292;2023-07-09T05:31:48;552.45;;;160.90;;
74459;SDS011;62902;48.854;9.292;2023-07-09T05:34:15;540.80;;;162.35;;
74459;SDS011;62902;48.854;9.292;2023-07-09T05:36:41;481.20;;;194.35;;
74459;SDS011;62902;48.854;9.292;2023-07-09T05:39:08;550.73;;;164.83;;
74459;SDS011;62902;48.854;9.292;2023-07-09T05:41:35;521.78;;;160.63;;
74459;SDS011;62902;48.854;9.292;2023-07-09T05:44:01;502.60;;;194.90;;
74459;SDS011;62902;48.854;9.292;2023-07-09T05:46:28;557.87;;;176.83;;
74459;SDS011;62902;48.854;9.292;2023-07-09T05:48:55;561.75;;;162.95;;
74459;SDS011;62902;48.854;9.292;2023-07-09T05:51:21;572.85;;;170.00;;
74459;SDS011;62902;48.854;9.292;2023-07-09T05:53:50;555.15;;;151.60;;
74459;SDS011;62902;48.854;9.292;2023-07-09T05:56:17;588.90;;;149.63;;
74459;SDS011;62902;48.854;9.292;2023-07-09T05:58:44;585.10;;;149.37;;
74459;SDS011;62902;48.854;9.292;2023-07-09T06:01:10;590.17;;;148.30;;
74459;SDS011;62902;48.854;9.292;2023-07-09T06:03:37;593.35;;;142.45;;
74459;SDS011;62902;48.854;9.292;2023-07-09T06:06:04;589.37;;;147.57;;
74459;SDS011;62902;48.854;9.292;2023-07-09T06:08:32;584.83;;;151.27;;
74459;SDS011;62902;48.854;9.292;2023-07-09T06:11:00;577.78;;;155.55;;
74459;SDS011;62902;48.854;9.292;2023-07-09T06:13:28;593.13;;;141.93;;
74459;SDS011;62902;48.854;9.292;2023-07-09T06:15:57;590.37;;;147.90;;
74459;SDS011;62902;48.854;9.292;2023-07-09T06:18:25;580.08;;;154.00;;
74459;SDS011;62902;48.854;9.292;2023-07-09T06:20:56;592.20;;;141.70;;
74459;SDS011;62902;48.854;9.292;2023-07-09T06:23:24;602.45;;;127.35;;
74459;SDS011;62902;48.854;9.292;2023-07-09T06:25:51;566.60;;;173.55;;
74459;SDS011;62902;48.854;9.292;2023-07-09T06:28:20;581.60;;;166.63;;
74459;SDS011;62902;48.854;9.292;2023-07-09T06:30:48;588.40;;;151.40;;
74459;SDS011;62902;48.854;9.292;2023-07-09T06:33:15;561.17;;;164.43;;
74459;SDS011;62902;48.854;9.292;2023-07-09T06:35:51;568.72;;;162.98;;
74459;SDS011;62902;48.854;9.292;2023-07-09T06:38:19;563.40;;;166.17;;
74459;SDS011;62902;48.854;9.292;2023-07-09T06:40:47;557.43;;;164.80;;
74459;SDS011;62902;48.854;9.292;2023-07-09T06:43:14;561.17;;;165.85;;
74459;SDS011;62902;48.854;9.292;2023-07-09T06:45:55;533.67;;;173.40;;
74459;SDS011;62902;48.854;9.292;2023-07-09T06:48:25;555.30;;;180.50;;
74459;SDS011;62902;48.854;9.292;2023-07-09T06:50:53;523.60;;;181.48;;
74459;SDS011;62902;48.854;9.292;2023-07-09T06:53:21;528.75;;;200.25;;
74459;SDS011;62902;48.854;9.292;2023-07-09T06:55:48;536.15;;;197.48;;
74459;SDS011;62902;48.854;9.292;2023-07-09T06:58:16;517.95;;;222.45;;
74459;SDS011;62902;48.854;9.292;2023-07-09T07:00:43;503.63;;;244.40;;
74459;SDS011;62902;48.854;9.292;2023-07-09T07:03:09;566.50;;;178.80;;
74459;SDS011;62902;48.854;9.292;2023-07-09T07:05:36;536.90;;;196.10;;
74459;SDS011;62902;48.854;9.292;2023-07-09T07:08:03;545.50;;;171.90;;
74459;SDS011;62902;48.854;9.292;2023-07-09T07:10:30;591.67;;;159.53;;
74459;SDS011;62902;48.854;9.292;2023-07-09T07:12:57;597.90;;;150.43;;
74459;SDS011;62902;48.854;9.292;2023-07-09T07:15:24;554.65;;;182.90;;
74459;SDS011;62902;48.854;9.292;2023-07-09T07:17:50;546.13;;;173.77;;
74459;SDS011;62902;48.854;9.292;2023-07-09T07:20:17;542.58;;;172.40;;
74459;SDS011;62902;48.854;9.292;2023-07-09T07:27:38;545.00;;;174.85;;
74459;SDS011;62902;48.854;9.292;2023-07-09T07:30:05;543.17;;;173.67;;
74459;SDS011;62902;48.854;9.292;2023-07-09T07:32:38;543.17;;;175.10;;
74459;SDS011;62902;48.854;9.292;2023-07-09T07:35:09;548.67;;;177.30;;
74459;SDS011;62902;48.854;9.292;2023-07-09T07:37:36;551.35;;;178.40;;
74459;SDS011;62902;48.854;9.292;2023-07-09T07:40:02;549.00;;;178.30;;
74459;SDS011;62902;48.854;9.292;2023-07-09T07:42:31;548.73;;;180.00;;
74459;SDS011;62902;48.854;9.292;2023-07-09T07:44:57;551.40;;;179.95;;
74459;SDS011;62902;48.854;9.292;2023-07-09T07:47:24;554.55;;;179.73;;
74459;SDS011;62902;48.854;9.292;2023-07-09T07:49:53;556.50;;;178.13;;
74459;SDS011;62902;48.854;9.292;2023-07-09T07:52:20;558.83;;;177.27;;
74459;SDS011;62902;48.854;9.292;2023-07-09T07:54:47;559.27;;;177.97;;
74459;SDS011;62902;48.854;9.292;2023-07-09T07:57:13;553.78;;;180.35;;
74459;SDS011;62902;48.854;9.292;2023-07-09T07:59:40;553.03;;;181.75;;
74459;SDS011;62902;48.854;9.292;2023-07-09T08:02:10;551.60;;;183.40;;
74459;SDS011;62902;48.854;9.292;2023-07-09T08:04:38;552.17;;;182.97;;
74459;SDS011;62902;48.854;9.292;2023-07-09T08:07:09;547.07;;;184.50;;
74459;SDS011;62902;48.854;9.292;2023-07-09T08:09:37;543.60;;;183.30;;
74459;SDS011;62902;48.854;9.292;2023-07-09T08:12:04;557.03;;;179.77;;
74459;SDS011;62902;48.854;9.292;2023-07-09T08:14:41;577.80;;;167.80;;
74459;SDS011;62902;48.854;9.292;2023-07-09T08:17:08;517.70;;;224.60;;
74459;SDS011;62902;48.854;9.292;2023-07-09T08:19:48;617.20;;;165.40;;
74459;SDS011;62902;48.854;9.292;2023-07-09T08:22:16;586.15;;;177.40;;
74459;SDS011;62902;48.854;9.292;2023-07-09T08:24:43;409.00;;;177.20;;
74459;SDS011;62902;48.854;9.292;2023-07-09T08:27:10;530.40;;;231.35;;
74459;SDS011;62902;48.854;9.292;2023-07-09T08:29:36;452.55;;;250.25;;
74459;SDS011;62902;48.854;9.292;2023-07-09T08:32:03;626.00;;;158.40;;
74459;SDS011;62902;48.854;9.292;2023-07-09T08:34:30;629.03;;;155.93;;
74459;SDS011;62902;48.854;9.292;2023-07-09T08:36:57;620.60;;;147.10;;
74459;SDS011;62902;48.854;9.292;2023-07-09T08:39:24;623.67;;;147.88;;
74459;SDS011;62902;48.854;9.292;2023-07-09T08:41:54;1151.27;;;372.33;;
74459;SDS011;62902;48.854;9.292;2023-07-09T08:44:33;594.30;;;157.25;;
74459;SDS011;62902;48.854;9.292;2023-07-09T08:52:35;570.65;;;170.50;;
74459;SDS011;62902;48.854;9.292;2023-07-09T08:57:34;579.30;;;168.60;;
74459;SDS011;62902;48.854;9.292;2023-07-09T09:02:45;561.50;;;181.90;;
74459;SDS011;62902;48.854;9.292;2023-07-09T09:05:17;551.20;;;193.23;;
74459;SDS011;62902;48.854;9.292;2023-07-09T09:07:45;550.17;;;194.93;;
74459;SDS011;62902;48.854;9.292;2023-07-09T09:10:33;550.67;;;193.47;;
74459;SDS011;62902;48.854;9.292;2023-07-09T09:13:08;548.80;;;194.97;;
74459;SDS011;62902;48.854;9.292;2023-07-09T09:15:37;543.00;;;198.80;;
74459;SDS011;62902;48.854;9.292;2023-07-09T09:20:46;530.55;;;208.00;;
74459;SDS011;62902;48.854;9.292;2023-07-09T09:23:14;330.05;;;92.05;;
74459;SDS011;62902;48.854;9.292;2023-07-09T09:25:43;1305.50;;;423.40;;
74459;SDS011;62902;48.854;9.292;2023-07-09T09:30:51;605.00;;;173.00;;
74459;SDS011;62902;48.854;9.292;2023-07-09T09:33:18;573.07;;;194.20;;
74459;SDS011;62902;48.854;9.292;2023-07-09T09:35:45;583.03;;;165.05;;
74459;SDS011;62902;48.854;9.292;2023-07-09T09:38:18;589.13;;;157.27;;
74459;SDS011;62902;48.854;9.292;2023-07-09T09:40:47;608.20;;;128.20;;
74459;SDS011;62902;48.854;9.292;2023-07-09T09:43:15;598.65;;;139.50;;
74459;SDS011;62902;48.854;9.292;2023-07-09T09:45:46;531.40;;;232.80;;
74459;SDS011;62902;48.854;9.292;2023-07-09T09:48:16;535.50;;;219.88;;
74459;SDS011;62902;48.854;9.292;2023-07-09T09:50:45;482.35;;;285.90;;
74459;SDS011;62902;48.854;9.292;2023-07-09T09:53:18;545.00;;;209.40;;
74459;SDS011;62902;48.854;9.292;2023-07-09T09:55:46;588.70;;;180.95;;
74459;SDS011;62902;48.854;9.292;2023-07-09T09:58:14;591.90;;;162.90;;
74459;SDS011;62902;48.854;9.292;2023-07-09T10:00:46;562.80;;;163.80;;
74459;SDS011;62902;48.854;9.292;2023-07-09T10:03:14;567.30;;;129.95;;
74459;SDS011;62902;48.854;9.292;2023-07-09T10:05:43;603.30;;;154.55;;
74459;SDS011;62902;48.854;9.292;2023-07-09T10:08:13;531.63;;;215.55;;
74459;SDS011;62902;48.854;9.292;2023-07-09T10:10:44;556.97;;;187.83;;
74459;SDS011;62902;48.854;9.292;2023-07-09T10:13:24;556.73;;;166.53;;
74459;SDS011;62902;48.854;9.292;2023-07-09T10:19:12;514.20;;;239.20;;
74459;SDS011;62902;48.854;9.292;2023-07-09T10:26:56;428.40;;;229.00;;
74459;SDS011;62902;48.854;9.292;2023-07-09T11:16:12;319.00;;;75.23;;
74459;SDS011;62902;48.854;9.292;2023-07-09T11:21:14;519.10;;;243.65;;
74459;SDS011;62902;48.854;9.292;2023-07-09T11:31:40;495.40;;;305.10;;
74459;SDS011;62902;48.854;9.292;2023-07-09T11:36:50;502.40;;;297.90;;
74459;SDS011;62902;48.854;9.292;2023-07-09T11:39:31;540.35;;;215.55;;
74459;SDS011;62902;48.854;9.292;2023-07-09T11:45:16;549.60;;;207.97;;
74459;SDS011;62902;48.854;9.292;2023-07-09T11:47:55;307.10;;;61.05;;
74459;SDS011;62902;48.854;9.292;2023-07-09T11:50:39;319.60;;;67.00;;
74459;SDS011;62902;48.854;9.292;2023-07-09T11:53:28;356.65;;;125.75;;
74459;SDS011;62902;48.854;9.292;2023-07-09T11:55:59;501.00;;;290.43;;
74459;SDS011;62902;48.854;9.292;2023-07-09T11:58:25;473.65;;;321.30;;
74459;SDS011;62902;48.854;9.292;2023-07-09T12:00:57;494.95;;;306.25;;
74459;SDS011;62902;48.854;9.292;2023-07-09T12:03:28;485.95;;;288.80;;
74459;SDS011;62902;48.854;9.292;2023-07-09T12:05:59;500.55;;;298.85;;
74459;SDS011;62902;48.854;9.292;2023-07-09T12:11:02;341.25;;;106.25;;
74459;SDS011;62902;48.854;9.292;2023-07-09T12:13:35;523.73;;;229.60;;
74459;SDS011;62902;48.854;9.292;2023-07-09T12:16:03;584.70;;;184.45;;
74459;SDS011;62902;48.854;9.292;2023-07-09T12:18:30;516.00;;;271.40;;
74459;SDS011;62902;48.854;9.292;2023-07-09T12:20:58;535.15;;;230.80;;
74459;SDS011;62902;48.854;9.292;2023-07-09T12:25:52;407.23;;;188.70;;
74459;SDS011;62902;48.854;9.292;2023-07-09T12:30:47;502.10;;;304.53;;
74459;SDS011;62902;48.854;9.292;2023-07-09T12:38:18;366.73;;;138.47;;
74459;SDS011;62902;48.854;9.292;2023-07-09T12:43:14;404.20;;;219.60;;
74459;SDS011;62902;48.854;9.292;2023-07-09T12:45:51;510.40;;;291.10;;
74459;SDS011;62902;48.854;9.292;2023-07-09T12:48:23;486.30;;;209.50;;
74459;SDS011;62902;48.854;9.292;2023-07-09T12:53:19;298.30;;;50.50;;
74459;SDS011;62902;48.854;9.292;2023-07-09T12:55:49;382.80;;;143.65;;
74459;SDS011;62902;48.854;9.292;2023-07-09T12:58:21;315.70;;;58.50;;
74459;SDS011;62902;48.854;9.292;2023-07-09T13:50:38;546.15;;;227.65;;
74459;SDS011;62902;48.854;9.292;2023-07-09T13:53:08;571.90;;;193.30;;
74459;SDS011;62902;48.854;9.292;2023-07-09T13:58:08;563.40;;;191.45;;
74459;SDS011;62902;48.854;9.292;2023-07-09T14:00:36;552.63;;;179.53;;
74459;SDS011;62902;48.854;9.292;2023-07-09T14:03:07;553.23;;;178.70;;
74459;SDS011;62902;48.854;9.292;2023-07-09T14:05:41;546.47;;;181.02;;
74459;SDS011;62902;48.854;9.292;2023-07-09T14:08:09;548.67;;;182.80;;
74459;SDS011;62902;48.854;9.292;2023-07-09T14:10:38;551.10;;;179.27;;
74459;SDS011;62902;48.854;9.292;2023-07-09T14:13:05;539.10;;;181.70;;
74459;SDS011;62902;48.854;9.292;2023-07-09T14:15:32;579.75;;;176.00;;
74459;SDS011;62902;48.854;9.292;2023-07-09T14:17:59;582.05;;;162.50;;
74459;SDS011;62902;48.854;9.292;2023-07-09T14:20:26;566.57;;;189.70;;
74459;SDS011;62902;48.854;9.292;2023-07-09T14:22:53;558.60;;;172.25;;
74459;SDS011;62902;48.854;9.292;2023-07-09T14:25:21;567.30;;;169.75;;
74459;SDS011;62902;48.854;9.292;2023-07-09T14:27:50;554.05;;;202.05;;
74459;SDS011;62902;48.854;9.292;2023-07-09T14:30:22;560.90;;;180.80;;
74459;SDS011;62902;48.854;9.292;2023-07-09T14:32:52;559.67;;;179.27;;
74459;SDS011;62902;48.854;9.292;2023-07-09T14:35:23;562.77;;;178.10;;
74459;SDS011;62902;48.854;9.292;2023-07-09T14:37:51;563.30;;;176.07;;
74459;SDS011;62902;48.854;9.292;2023-07-09T14:40:19;575.50;;;170.70;;
74459;SDS011;62902;48.854;9.292;2023-07-09T14:42:47;570.40;;;169.50;;
74459;SDS011;62902;48.854;9.292;2023-07-09T14:45:20;592.03;;;172.97;;
74459;SDS011;62902;48.854;9.292;2023-07-09T14:47:48;580.80;;;168.70;;
74459;SDS011;62902;48.854;9.292;2023-07-09T14:50:15;591.30;;;179.70;;
74459;SDS011;62902;48.854;9.292;2023-07-09T14:52:42;573.37;;;176.33;;
74459;SDS011;62902;48.854;9.292;2023-07-09T14:55:14;600.83;;;176.60;;
74459;SDS011;62902;48.854;9.292;2023-07-09T14:57:42;600.37;;;177.97;;
74459;SDS011;62902;48.854;9.292;2023-07-09T15:00:12;584.80;;;195.45;;
74459;SDS011;62902;48.854;9.292;2023-07-09T15:02:40;587.55;;;171.80;;
74459;SDS011;62902;48.854;9.292;2023-07-09T15:05:18;582.00;;;174.95;;
74459;SDS011;62902;48.854;9.292;2023-07-09T15:07:46;533.25;;;203.80;;
74459;SDS011;62902;48.854;9.292;2023-07-09T15:10:14;541.05;;;259.60;;
74459;SDS011;62902;48.854;9.292;2023-07-09T15:12:43;601.90;;;186.77;;
74459;SDS011;62902;48.854;9.292;2023-07-09T15:15:16;571.00;;;192.90;;
74459;SDS011;62902;48.854;9.292;2023-07-09T15:17:56;585.25;;;208.50;;
74459;SDS011;62902;48.854;9.292;2023-07-09T15:20:27;590.17;;;172.00;;
74459;SDS011;62902;48.854;9.292;2023-07-09T15:22:55;592.10;;;166.40;;
74459;SDS011;62902;48.854;9.292;2023-07-09T15:25:24;539.55;;;215.10;;
74459;SDS011;62902;48.854;9.292;2023-07-09T15:27:52;497.30;;;239.80;;
74459;SDS011;62902;48.854;9.292;2023-07-09T15:32:47;594.00;;;200.50;;
74459;SDS011;62902;48.854;9.292;2023-07-09T15:35:17;584.20;;;181.00;;
74459;SDS011;62902;48.854;9.292;2023-07-09T15:42:47;548.85;;;238.10;;
74459;SDS011;62902;48.854;9.292;2023-07-09T15:45:15;516.35;;;316.27;;
74459;SDS011;62902;48.854;9.292;2023-07-09T15:47:42;491.20;;;310.40;;
74459;SDS011;62902;48.854;9.292;2023-07-09T15:50:20;509.70;;;308.35;;
74459;SDS011;62902;48.854;9.292;2023-07-09T15:52:49;515.45;;;304.15;;
74459;SDS011;62902;48.854;9.292;2023-07-09T15:55:18;529.95;;;277.70;;
74459;SDS011;62902;48.854;9.292;2023-07-09T15:57:49;536.90;;;263.35;;
74459;SDS011;62902;48.854;9.292;2023-07-09T16:02:46;561.15;;;219.00;;
74459;SDS011;62902;48.854;9.292;2023-07-09T16:05:17;562.40;;;216.25;;
74459;SDS011;62902;48.854;9.292;2023-07-09T16:07:51;543.70;;;214.00;;
74459;SDS011;62902;48.854;9.292;2023-07-09T16:12:46;1505.13;;;456.23;;
74459;SDS011;62902;48.854;9.292;2023-07-09T16:15:15;1999.90;;;630.00;;
74459;SDS011;62902;48.854;9.292;2023-07-09T16:17:43;1520.50;;;426.10;;
74459;SDS011;62902;48.854;9.292;2023-07-09T16:20:24;1999.90;;;674.07;;
74459;SDS011;62902;48.854;9.292;2023-07-09T16:22:54;893.10;;;293.63;;
74459;SDS011;62902;48.854;9.292;2023-07-09T16:25:22;1381.85;;;422.23;;
74459;SDS011;62902;48.854;9.292;2023-07-09T16:27:49;917.35;;;292.17;;
74459;SDS011;62902;48.854;9.292;2023-07-09T16:30:20;1042.95;;;319.77;;
74459;SDS011;62902;48.854;9.292;2023-07-09T16:32:48;1651.50;;;466.02;;
74459;SDS011;62902;48.854;9.292;2023-07-09T16:35:16;1593.57;;;455.52;;
74459;SDS011;62902;48.854;9.292;2023-07-09T16:37:45;1650.93;;;460.38;;
74459;SDS011;62902;48.854;9.292;2023-07-09T16:40:27;1999.90;;;705.58;;
74459;SDS011;62902;48.854;9.292;2023-07-09T16:42:56;1999.90;;;885.70;;
74459;SDS011;62902;48.854;9.292;2023-07-09T16:47:50;1675.47;;;362.33;;
74459;SDS011;62902;48.854;9.292;2023-07-09T16:50:22;1623.63;;;462.20;;
74459;SDS011;62902;48.854;9.292;2023-07-09T16:52:50;1774.22;;;505.60;;
74459;SDS011;62902;48.854;9.292;2023-07-09T16:55:19;1066.57;;;332.40;;
74459;SDS011;62902;48.854;9.292;2023-07-09T16:57:53;944.90;;;298.20;;
74459;SDS011;62902;48.854;9.292;2023-07-09T17:00:28;1053.72;;;326.30;;
74459;SDS011;62902;48.854;9.292;2023-07-09T17:03:05;1999.90;;;630.45;;
74459;SDS011;62902;48.854;9.292;2023-07-09T17:05:32;1999.90;;;774.70;;
74459;SDS011;62902;48.854;9.292;2023-07-09T17:07:59;1999.90;;;999.90;;
74459;SDS011;62902;48.854;9.292;2023-07-09T17:10:26;592.20;;;159.40;;
74459;SDS011;62902;48.854;9.292;2023-07-09T17:12:56;575.50;;;150.10;;
74459;SDS011;62902;48.854;9.292;2023-07-09T17:17:57;591.00;;;145.15;;
74459;SDS011;62902;48.854;9.292;2023-07-09T17:22:52;1999.90;;;674.00;;
74459;SDS011;62902;48.854;9.292;2023-07-09T17:55:27;1233.00;;;223.00;;
74459;SDS011;62902;48.854;9.292;2023-07-09T18:27:34;1264.23;;;368.40;;
74459;SDS011;62902;48.854;9.292;2023-07-09T18:35:42;565.83;;;172.83;;
74459;SDS011;62902;48.854;9.292;2023-07-09T18:38:09;564.33;;;163.20;;